createdAt,value
2018-12-19T00:01:33.611Z,17.43
2018-12-19T00:04:01.784Z,16.37
2018-12-19T00:06:30.004Z,16.57
2018-12-19T00:09:03.141Z,19.87
2018-12-19T00:11:28.331Z,24.27
2018-12-19T00:13:56.507Z,17.87
2018-12-19T00:16:24.668Z,18.20
2018-12-19T00:18:52.835Z,18.80
2018-12-19T00:21:20.999Z,17.13
2018-12-19T00:23:49.471Z,25.33
2018-12-19T00:26:17.632Z,19.40
2018-12-19T00:28:45.800Z,18.87
2018-12-19T00:31:14.047Z,20.63
2018-12-19T00:33:42.207Z,18.40
2018-12-19T00:36:10.384Z,20.80
2018-12-19T00:38:38.640Z,19.63
2018-12-19T00:41:06.803Z,18.60
2018-12-19T00:43:34.987Z,19.50
2018-12-19T00:46:03.165Z,20.10
2018-12-19T00:48:31.327Z,20.13
2018-12-19T00:50:59.492Z,20.20
2018-12-19T00:53:27.660Z,18.07
2018-12-19T00:55:55.827Z,19.63
2018-12-19T00:58:24.004Z,17.97
2018-12-19T01:00:52.167Z,17.37
2018-12-19T01:03:20.340Z,16.90
2018-12-19T01:05:48.576Z,19.10
2018-12-19T01:08:16.885Z,17.63
2018-12-19T01:10:45.067Z,17.60
2018-12-19T01:13:13.243Z,17.33
2018-12-19T01:15:41.411Z,18.93
2018-12-19T01:18:09.571Z,18.43
2018-12-19T01:20:37.740Z,17.87
2018-12-19T01:23:05.914Z,17.60
2018-12-19T01:25:34.077Z,17.93
2018-12-19T01:28:02.245Z,20.37
2018-12-19T01:30:30.409Z,18.00
2018-12-19T01:32:58.587Z,18.33
2018-12-19T01:35:26.753Z,17.30
2018-12-19T01:37:54.916Z,19.27
2018-12-19T01:40:23.159Z,17.67
2018-12-19T01:42:51.325Z,18.10
2018-12-19T01:45:19.576Z,17.60
2018-12-19T01:47:47.919Z,17.70
2018-12-19T01:50:16.072Z,18.40
2018-12-19T01:52:44.239Z,18.13
2018-12-19T01:55:12.408Z,19.07
2018-12-19T01:57:40.575Z,17.90
2018-12-19T02:00:08.834Z,18.30
2018-12-19T02:02:37.007Z,17.87
2018-12-19T02:05:05.351Z,19.40
2018-12-19T02:07:33.515Z,17.80
2018-12-19T02:10:01.766Z,17.77
2018-12-19T02:12:29.939Z,18.17
2018-12-19T02:14:58.111Z,17.80
2018-12-19T02:17:26.271Z,15.80
2018-12-19T02:19:54.524Z,18.60
2018-12-19T02:22:22.820Z,18.97
2018-12-19T02:24:50.988Z,19.53
2018-12-19T02:27:19.173Z,19.20
2018-12-19T02:29:47.373Z,18.80
2018-12-19T02:32:15.548Z,15.93
2018-12-19T02:34:43.745Z,18.50
2018-12-19T02:37:12.004Z,17.70
2018-12-19T02:39:40.223Z,19.10
2018-12-19T02:42:08.399Z,19.27
2018-12-19T02:44:36.600Z,18.53
2018-12-19T02:47:04.792Z,19.13
2018-12-19T02:49:32.977Z,17.23
2018-12-19T02:52:01.156Z,18.90
2018-12-19T02:54:29.349Z,19.60
2018-12-19T02:56:57.530Z,19.67
2018-12-19T02:59:25.765Z,18.63
2018-12-19T03:01:53.944Z,19.33
2018-12-19T03:04:22.135Z,19.83
2018-12-19T03:06:50.319Z,20.33
2018-12-19T03:09:18.545Z,18.87
2018-12-19T03:11:46.724Z,19.17
2018-12-19T03:14:14.939Z,19.47
2018-12-19T03:16:43.111Z,20.07
2018-12-19T03:19:11.304Z,19.10
2018-12-19T03:21:39.488Z,19.97
2018-12-19T03:24:07.672Z,20.57
2018-12-19T03:26:35.884Z,20.37
2018-12-19T03:29:04.156Z,18.30
2018-12-19T03:31:32.356Z,20.07
2018-12-19T03:34:00.615Z,20.53
2018-12-19T03:36:28.810Z,21.50
2018-12-19T03:38:56.992Z,20.93
2018-12-19T03:41:25.192Z,19.63
2018-12-19T03:43:53.376Z,18.70
2018-12-19T03:46:21.570Z,19.53
2018-12-19T03:48:55.195Z,20.77
2018-12-19T03:51:23.492Z,21.10
2018-12-19T03:53:51.724Z,20.50
2018-12-19T03:56:19.951Z,19.63
2018-12-19T03:58:48.219Z,21.47
2018-12-19T04:01:16.398Z,20.33
2018-12-19T04:03:44.587Z,19.83
2018-12-19T04:06:12.769Z,19.47
2018-12-19T04:08:41.040Z,18.07
2018-12-19T04:11:09.216Z,18.20
2018-12-19T04:13:37.577Z,16.90
2018-12-19T04:16:05.764Z,18.50
2018-12-19T04:18:34.031Z,19.60
2018-12-19T04:21:02.236Z,17.83
2018-12-19T04:23:30.540Z,20.27
2018-12-19T04:25:58.725Z,18.40
2018-12-19T04:28:27.100Z,18.77
2018-12-19T04:30:55.313Z,16.30
2018-12-19T04:33:23.472Z,16.70
2018-12-19T04:35:51.952Z,15.93
2018-12-19T04:38:20.140Z,16.10
2018-12-19T04:40:48.354Z,15.50
2018-12-19T04:43:16.528Z,16.50
2018-12-19T04:45:44.803Z,15.00
2018-12-19T04:48:13.156Z,14.10
2018-12-19T04:50:41.336Z,13.73
2018-12-19T04:53:09.522Z,14.93
2018-12-19T04:55:37.701Z,14.10
2018-12-19T04:58:05.876Z,14.20
2018-12-19T05:00:34.154Z,14.17
2018-12-19T05:03:02.327Z,15.00
2018-12-19T05:05:30.515Z,13.70
2018-12-19T05:07:58.785Z,14.03
2018-12-19T05:10:27.053Z,11.67
2018-12-19T05:12:55.232Z,12.63
2018-12-19T05:15:23.428Z,12.97
2018-12-19T05:17:51.610Z,13.40
2018-12-19T05:20:19.796Z,12.27
2018-12-19T05:22:47.973Z,12.57
2018-12-19T05:25:16.160Z,14.60
2018-12-19T05:27:44.351Z,14.00
2018-12-19T05:30:12.612Z,13.33
2018-12-19T05:32:40.812Z,10.80
2018-12-19T05:35:09.162Z,11.33
2018-12-19T05:37:37.340Z,12.50
2018-12-19T05:40:07.237Z,10.97
2018-12-19T05:42:35.415Z,11.10
2018-12-19T05:45:04.604Z,9.40
2018-12-19T05:47:32.793Z,12.20
2018-12-19T05:50:01.105Z,12.23
2018-12-19T05:52:29.476Z,11.63
2018-12-19T05:54:57.752Z,11.60
2018-12-19T05:57:26.123Z,11.57
2018-12-19T05:59:54.304Z,9.67
2018-12-19T06:02:22.475Z,9.43
2018-12-19T06:04:50.660Z,10.73
2018-12-19T06:07:18.843Z,10.03
2018-12-19T06:09:47.112Z,10.20
2018-12-19T06:12:15.379Z,9.20
2018-12-19T06:14:43.570Z,9.53
2018-12-19T06:17:11.741Z,10.20
2018-12-19T06:19:39.975Z,10.00
2018-12-19T06:22:08.148Z,10.23
2018-12-19T06:24:36.331Z,9.17
2018-12-19T06:27:04.600Z,8.80
2018-12-19T06:29:32.809Z,9.60
2018-12-19T06:32:00.989Z,9.50
2018-12-19T06:34:29.164Z,9.37
2018-12-19T06:36:57.345Z,10.40
2018-12-19T06:39:25.616Z,10.17
2018-12-19T06:41:53.800Z,12.70
2018-12-19T06:44:22.068Z,10.97
2018-12-19T06:46:50.263Z,11.13
2018-12-19T06:49:18.459Z,10.20
2018-12-19T06:51:46.716Z,9.73
2018-12-19T06:54:14.888Z,9.27
2018-12-19T06:56:43.077Z,9.50
2018-12-19T06:59:11.252Z,9.93
2018-12-19T07:01:39.432Z,9.37
2018-12-19T07:04:07.608Z,9.73
2018-12-19T07:06:35.792Z,10.27
2018-12-19T07:09:06.888Z,11.27
2018-12-19T07:11:35.100Z,10.00
2018-12-19T07:14:03.558Z,10.83
2018-12-19T07:16:31.740Z,10.60
2018-12-19T07:18:59.911Z,8.90
2018-12-19T07:21:28.096Z,9.23
2018-12-19T07:23:56.273Z,11.50
2018-12-19T07:26:24.592Z,10.57
2018-12-19T07:28:52.767Z,10.50
2018-12-19T07:31:20.951Z,10.30
2018-12-19T07:33:49.137Z,9.57
2018-12-19T07:36:17.325Z,10.67
2018-12-19T07:38:45.500Z,10.13
2018-12-19T07:41:13.763Z,9.70
2018-12-19T07:43:41.944Z,9.03
2018-12-19T07:46:10.123Z,9.90
2018-12-19T07:48:38.692Z,9.67
2018-12-19T07:51:06.980Z,9.43
2018-12-19T07:53:35.156Z,9.40
2018-12-19T07:56:03.763Z,10.37
2018-12-19T07:58:31.944Z,9.97
2018-12-19T08:01:00.128Z,8.60
2018-12-19T08:03:28.404Z,9.27
2018-12-19T08:05:56.583Z,8.50
2018-12-19T08:08:24.763Z,8.73
2018-12-19T08:10:52.941Z,9.60
2018-12-19T08:13:21.120Z,9.07
2018-12-19T08:15:49.299Z,9.70
2018-12-19T08:18:17.471Z,8.83
2018-12-19T08:20:45.659Z,8.60
2018-12-19T08:23:13.837Z,9.50
2018-12-19T08:25:42.020Z,9.40
2018-12-19T08:28:10.205Z,9.10
2018-12-19T08:30:38.389Z,8.77
2018-12-19T08:33:06.567Z,9.77
2018-12-19T08:35:34.756Z,9.17
2018-12-19T08:38:02.933Z,9.87
2018-12-19T08:40:31.109Z,9.47
2018-12-19T08:42:59.276Z,12.53
2018-12-19T08:45:27.780Z,14.37
2018-12-19T08:47:55.952Z,13.00
2018-12-19T08:50:24.168Z,12.40
2018-12-19T08:52:52.345Z,12.77
2018-12-19T08:55:20.575Z,13.27
2018-12-19T08:57:48.765Z,14.23
2018-12-19T09:00:17.050Z,13.00
2018-12-19T09:02:45.232Z,13.90
2018-12-19T09:05:13.424Z,12.73
2018-12-19T09:07:41.615Z,11.23
2018-12-19T09:10:10.713Z,11.57
2018-12-19T09:12:38.900Z,11.60
2018-12-19T09:15:07.796Z,10.50
2018-12-19T09:17:35.992Z,15.33
2018-12-19T09:20:04.905Z,56.30
2018-12-19T09:22:33.221Z,36.40
2018-12-19T09:25:01.434Z,23.90
2018-12-19T09:27:29.760Z,21.63
2018-12-19T09:29:57.931Z,20.47
2018-12-19T09:32:26.136Z,21.40
2018-12-19T09:34:54.322Z,23.93
2018-12-19T09:37:22.578Z,18.73
2018-12-19T09:39:50.756Z,14.90
2018-12-19T09:42:19.025Z,16.00
2018-12-19T09:44:47.200Z,14.73
2018-12-19T09:47:15.393Z,13.20
2018-12-19T09:49:43.577Z,12.07
2018-12-19T09:52:11.765Z,16.00
2018-12-19T09:54:39.955Z,13.70
2018-12-19T09:57:08.135Z,11.87
2018-12-19T09:59:36.330Z,10.20
2018-12-19T10:02:05.009Z,12.50
2018-12-19T10:04:33.304Z,10.47
2018-12-19T10:07:01.487Z,12.50
2018-12-19T10:09:29.709Z,12.23
2018-12-19T10:11:57.899Z,12.10
2018-12-19T10:14:26.092Z,12.63
2018-12-19T10:16:54.300Z,12.03
2018-12-19T10:19:22.484Z,12.53
2018-12-19T10:21:50.765Z,14.13
2018-12-19T10:24:20.938Z,12.53
2018-12-19T10:26:49.192Z,13.20
2018-12-19T10:29:17.377Z,12.43
2018-12-19T10:31:45.560Z,12.70
2018-12-19T10:34:13.740Z,16.37
2018-12-19T10:36:41.932Z,15.07
2018-12-19T10:39:16.555Z,14.13
2018-12-19T10:41:44.739Z,12.23
2018-12-19T10:44:13.317Z,12.63
2018-12-19T10:46:41.593Z,13.03
2018-12-19T10:49:09.813Z,12.27
2018-12-19T10:51:38.000Z,12.83
2018-12-19T10:54:06.183Z,12.70
2018-12-19T10:56:34.360Z,11.93
2018-12-19T10:59:02.548Z,12.23
2018-12-19T11:01:30.776Z,11.87
2018-12-19T11:03:58.984Z,12.53
2018-12-19T11:06:27.178Z,11.63
2018-12-19T11:08:55.352Z,11.83
2018-12-19T11:11:23.533Z,13.80
2018-12-19T11:13:51.824Z,15.47
2018-12-19T11:16:20.004Z,13.60
2018-12-19T11:18:48.192Z,12.63
2018-12-19T11:21:16.368Z,12.07
2018-12-19T11:23:44.565Z,11.80
2018-12-19T11:26:12.744Z,12.20
2018-12-19T11:28:40.928Z,12.87
2018-12-19T11:31:09.112Z,13.07
2018-12-19T11:33:37.300Z,13.87
2018-12-19T11:36:05.580Z,13.10
2018-12-19T11:38:33.772Z,12.60
2018-12-19T11:41:01.944Z,13.47
2018-12-19T11:43:30.127Z,14.80
2018-12-19T11:45:58.325Z,11.77
2018-12-19T11:48:26.500Z,13.30
2018-12-19T11:50:54.676Z,14.07
2018-12-19T11:53:22.867Z,12.57
2018-12-19T11:55:51.044Z,11.00
2018-12-19T11:58:19.228Z,13.67
2018-12-19T12:00:47.592Z,14.03
2018-12-19T12:03:15.785Z,13.73
2018-12-19T12:05:43.978Z,12.77
2018-12-19T12:08:12.255Z,13.40
2018-12-19T12:10:40.460Z,10.83
2018-12-19T12:13:08.660Z,12.37
2018-12-19T12:15:36.844Z,15.20
2018-12-19T12:18:05.031Z,14.63
2018-12-19T12:20:33.232Z,14.10
2018-12-19T12:23:01.421Z,15.20
2018-12-19T12:25:29.607Z,18.15
2018-12-19T12:27:57.799Z,17.60
2018-12-19T12:30:26.000Z,12.40
2018-12-19T12:32:54.199Z,15.80
2018-12-19T12:35:22.464Z,13.60
2018-12-19T12:37:50.657Z,15.23
2018-12-19T12:40:18.845Z,15.48
2018-12-19T12:42:47.152Z,16.00
2018-12-19T12:45:18.024Z,14.68
2018-12-19T12:47:46.208Z,16.25
2018-12-19T12:50:14.389Z,15.70
2018-12-19T12:52:42.596Z,15.10
2018-12-19T12:55:10.784Z,14.93
2018-12-19T12:57:39.076Z,14.23
2018-12-19T13:00:07.626Z,14.70
2018-12-19T13:02:35.843Z,14.90
2018-12-19T13:05:04.452Z,14.30
2018-12-19T13:07:32.641Z,14.05
2018-12-19T13:10:00.848Z,14.80
2018-12-19T13:12:29.122Z,14.75
2018-12-19T13:14:57.324Z,14.10
2018-12-19T13:17:25.511Z,13.60
2018-12-19T13:19:53.720Z,14.13
2018-12-19T13:22:22.068Z,13.50
2018-12-19T13:24:50.308Z,14.60
2018-12-19T13:27:18.497Z,14.45
2018-12-19T13:29:46.816Z,16.80
2018-12-19T13:32:15.136Z,14.98
2018-12-19T13:34:43.341Z,14.10
2018-12-19T13:37:11.529Z,21.90
2018-12-19T13:39:39.791Z,19.70
2018-12-19T13:42:07.980Z,16.35
2018-12-19T13:44:36.196Z,16.10
2018-12-19T13:47:04.399Z,15.13
2018-12-19T13:49:32.607Z,15.85
2018-12-19T13:52:00.853Z,16.20
2018-12-19T13:54:29.090Z,16.93
2018-12-19T13:56:57.279Z,13.77
2018-12-19T13:59:25.493Z,13.10
2018-12-19T14:01:53.668Z,38.45
2018-12-19T14:04:22.048Z,23.55
2018-12-19T14:06:50.246Z,17.55
2018-12-19T14:09:18.452Z,20.35
2018-12-19T14:11:46.651Z,22.67
2018-12-19T14:14:14.867Z,20.72
2018-12-19T14:16:43.043Z,24.15
2018-12-19T14:19:11.260Z,21.25
2018-12-19T14:21:39.451Z,17.53
2018-12-19T14:24:07.644Z,16.50
2018-12-19T14:26:35.848Z,14.87
2018-12-19T14:29:04.123Z,14.70
2018-12-19T14:31:32.335Z,17.32
2018-12-19T14:34:00.560Z,21.48
2018-12-19T14:36:28.768Z,22.50
2018-12-19T14:38:56.970Z,22.17
2018-12-19T14:41:25.180Z,23.52
2018-12-19T14:43:53.376Z,21.70
2018-12-19T14:46:21.609Z,22.90
2018-12-19T14:48:49.798Z,21.82
2018-12-19T14:51:17.999Z,22.40
2018-12-19T14:53:46.244Z,20.17
2018-12-19T14:56:14.573Z,21.60
2018-12-19T14:58:42.820Z,20.80
2018-12-19T15:01:11.091Z,22.85
2018-12-19T15:03:39.280Z,21.90
2018-12-19T15:06:07.476Z,20.72
2018-12-19T15:08:35.655Z,21.82
2018-12-19T15:11:03.944Z,23.47
2018-12-19T15:13:32.176Z,23.75
2018-12-19T15:16:03.570Z,23.12
2018-12-19T15:18:31.852Z,24.37
2018-12-19T15:21:00.158Z,22.47
2018-12-19T15:23:28.362Z,23.15
2018-12-19T15:25:56.736Z,22.90
2018-12-19T15:28:24.966Z,24.50
2018-12-19T15:30:53.144Z,22.40
2018-12-19T15:33:21.334Z,23.75
2018-12-19T15:35:49.624Z,22.10
2018-12-19T15:38:17.935Z,21.68
2018-12-19T15:40:46.192Z,24.90
2018-12-19T15:43:14.396Z,23.22
2018-12-19T15:45:42.611Z,20.90
2018-12-19T15:48:10.826Z,19.90
2018-12-19T15:50:39.100Z,19.00
2018-12-19T15:53:07.364Z,20.72
2018-12-19T15:55:35.569Z,23.75
2018-12-19T15:58:03.835Z,21.57
2018-12-19T16:00:32.048Z,22.00
2018-12-19T16:03:00.272Z,21.23
2018-12-19T16:05:28.496Z,22.30
2018-12-19T16:07:56.769Z,22.50
2018-12-19T16:10:24.985Z,22.80
2018-12-19T16:12:53.156Z,20.37
2018-12-19T16:15:21.356Z,17.37
2018-12-19T16:17:49.544Z,17.17
2018-12-19T16:20:17.728Z,13.23
2018-12-19T16:22:45.923Z,14.30
2018-12-19T16:25:14.104Z,18.80
2018-12-19T16:27:42.288Z,21.02
2018-12-19T16:30:10.688Z,16.60
2018-12-19T16:32:38.961Z,14.17
2018-12-19T16:35:07.408Z,16.80
2018-12-19T16:37:35.651Z,18.45
2018-12-19T16:40:04.233Z,23.07
2018-12-19T16:42:32.429Z,27.23
2018-12-19T16:45:00.632Z,23.80
2018-12-19T16:47:28.858Z,23.52
2018-12-19T16:49:57.048Z,22.07
2018-12-19T16:52:25.384Z,23.70
2018-12-19T16:54:53.580Z,31.10
2018-12-19T16:57:21.782Z,24.35
2018-12-19T16:59:49.969Z,21.82
2018-12-19T17:02:18.160Z,20.75
2018-12-19T17:04:46.349Z,22.15
2018-12-19T17:07:14.626Z,20.92
2018-12-19T17:09:42.901Z,20.80
2018-12-19T17:12:11.163Z,22.80
2018-12-19T17:14:39.352Z,19.73
2018-12-19T17:17:07.533Z,16.83
2018-12-19T17:19:35.716Z,15.17
2018-12-19T17:22:03.984Z,15.80
2018-12-19T17:24:37.575Z,21.33
2018-12-19T17:27:05.830Z,18.23
2018-12-19T17:29:34.020Z,20.37
2018-12-19T17:32:02.475Z,19.47
2018-12-19T17:34:30.699Z,15.90
2018-12-19T17:36:58.886Z,15.30
2018-12-19T17:39:27.063Z,16.33
2018-12-19T17:41:55.240Z,15.10
2018-12-19T17:44:23.436Z,18.00
2018-12-19T17:46:51.616Z,17.50
2018-12-19T17:49:19.801Z,21.30
2018-12-19T17:51:47.984Z,41.27
2018-12-19T17:54:16.165Z,38.27
2018-12-19T17:56:44.359Z,33.57
2018-12-19T17:59:12.541Z,29.70
2018-12-19T18:01:40.850Z,25.77
2018-12-19T18:04:09.124Z,24.60
2018-12-19T18:06:37.468Z,23.70
2018-12-19T18:09:06.762Z,21.90
2018-12-19T18:11:35.003Z,19.33
2018-12-19T18:14:03.349Z,19.80
2018-12-19T20:58:51.596Z,12.27
2018-12-19T21:01:19.961Z,15.87
2018-12-19T21:03:48.312Z,13.30
2018-12-19T21:06:16.496Z,13.13
2018-12-19T21:08:44.681Z,14.23
2018-12-19T21:11:12.877Z,14.13
2018-12-19T21:13:46.698Z,14.60
2018-12-19T21:16:11.248Z,20.10
2018-12-19T21:18:45.751Z,20.77
2018-12-19T21:21:14.752Z,21.00
2018-12-19T21:23:42.967Z,20.72
2018-12-19T21:26:11.172Z,19.02
2018-12-19T21:28:39.368Z,20.82
2018-12-19T21:31:07.601Z,19.27
2018-12-19T21:33:35.777Z,21.85
2018-12-19T21:36:04.187Z,21.82
2018-12-19T21:38:32.403Z,21.00
2018-12-19T21:41:00.668Z,19.95
2018-12-19T21:43:28.888Z,19.57
2018-12-19T21:45:57.087Z,20.77
2018-12-19T21:48:25.271Z,20.95
2018-12-19T21:50:53.464Z,17.90
2018-12-19T21:53:21.761Z,16.60
2018-12-19T21:55:50.074Z,16.43
2018-12-19T21:58:18.372Z,14.13
2018-12-19T22:00:46.554Z,13.80
2018-12-19T22:03:14.744Z,14.87
2018-12-19T22:05:43.193Z,13.10
2018-12-19T22:08:11.472Z,14.70
2018-12-19T22:10:39.726Z,12.23
2018-12-19T22:13:08.032Z,17.73
2018-12-19T22:15:36.389Z,18.27
2018-12-19T22:18:09.991Z,17.85
2018-12-19T22:20:38.187Z,18.40
2018-12-19T22:23:06.617Z,18.50
2018-12-19T22:25:34.940Z,18.80
2018-12-19T22:28:03.139Z,18.20
2018-12-19T22:30:31.327Z,17.37
2018-12-19T22:32:59.536Z,17.50
2018-12-19T22:35:27.856Z,17.35
2018-12-19T22:37:56.122Z,17.03
2018-12-19T22:40:24.388Z,17.82
2018-12-19T22:42:52.568Z,17.30
2018-12-19T22:45:20.920Z,18.10
2018-12-19T22:47:49.182Z,18.92
2018-12-19T22:50:17.499Z,18.90
2018-12-19T22:52:45.766Z,18.62
2018-12-19T22:55:14.087Z,19.57
2018-12-19T22:57:42.315Z,20.00
2018-12-19T23:00:16.557Z,19.07
2018-12-19T23:02:51.274Z,18.65
2018-12-19T23:05:25.362Z,18.97
2018-12-19T23:07:53.773Z,18.57
2018-12-19T23:10:22.017Z,18.80
2018-12-19T23:12:50.267Z,18.35
2018-12-19T23:15:20.107Z,18.15
2018-12-19T23:17:48.448Z,18.70
2018-12-19T23:20:16.770Z,17.35
2018-12-19T23:22:45.087Z,17.45
2018-12-19T23:25:13.441Z,18.55
2018-12-19T23:27:41.644Z,17.80
2018-12-19T23:30:10.014Z,17.47
2018-12-19T23:32:38.331Z,17.48
2018-12-19T23:35:06.684Z,16.60
2018-12-19T23:37:34.928Z,17.98
2018-12-19T23:40:03.477Z,17.73
2018-12-19T23:42:31.668Z,17.73
2018-12-19T23:44:59.989Z,17.50
2018-12-19T23:47:28.256Z,17.10
2018-12-19T23:49:56.454Z,15.60
2018-12-19T23:52:24.721Z,16.57
2018-12-19T23:54:52.919Z,15.78
2018-12-19T23:57:21.118Z,16.17
2018-12-19T23:59:49.388Z,16.80
